Time;durP1;ratioP1;P1;durP2;ratioP2;P2;SDS_P1;SDS_P2;PMS_P1;PMS_P2;Temp;Humidity;BMP_temperature;BMP_pressure;BME280_temperature;BME280_humidity;BME280_pressure;Samples;Min_cycle;Max_cycle;Signal;HPM_P1;HPM_P2
2021/10/11 00:00:32;;;;;;;11.10;2.50;;;13.30;99.90;;;;;;5092340;28;20719;-75
2021/10/11 00:03:00;;;;;;;15.37;2.53;;;13.40;99.90;;;;;;5092290;28;20293;-73
2021/10/11 00:05:27;;;;;;;9.33;1.63;;;13.60;99.90;;;;;;5092439;28;20167;-78
2021/10/11 00:07:55;;;;;;;9.87;1.70;;;13.60;99.90;;;;;;5092145;28;20571;-78
2021/10/11 00:10:24;;;;;;;9.70;2.10;;;13.50;99.90;;;;;;5092236;28;20629;-77
2021/10/11 00:12:52;;;;;;;7.27;2.00;;;13.70;99.90;;;;;;5086596;28;20244;-76
2021/10/11 00:15:24;;;;;;;7.53;1.70;;;13.60;99.90;;;;;;5105189;28;20290;-74
2021/10/11 00:17:52;;;;;;;8.63;1.97;;;13.60;99.90;;;;;;5091913;28;20575;-72
2021/10/11 00:20:19;;;;;;;7.40;2.20;;;13.70;99.90;;;;;;5092203;28;20212;-73
2021/10/11 00:22:47;;;;;;;11.53;2.00;;;13.70;99.90;;;;;;5091335;28;20210;-73
2021/10/11 00:25:15;;;;;;;6.93;1.80;;;13.80;99.90;;;;;;5090043;28;20200;-74
2021/10/11 00:27:42;;;;;;;8.17;2.10;;;13.80;99.90;;;;;;5077776;28;20175;-72
2021/10/11 00:30:12;;;;;;;6.97;2.07;;;13.80;99.90;;;;;;5086365;28;20186;-74
2021/10/11 00:32:41;;;;;;;8.27;2.17;;;13.90;99.90;;;;;;5089517;28;20194;-76
2021/10/11 00:35:09;;;;;;;8.60;1.50;;;13.80;99.90;;;;;;5090235;28;20648;-71
2021/10/11 00:37:36;;;;;;;7.60;2.07;;;13.80;99.90;;;;;;5091897;28;20167;-75
2021/10/11 00:40:05;;;;;;;7.30;1.77;;;13.80;99.90;;;;;;5092047;28;20236;-75
2021/10/11 00:42:33;;;;;;;9.90;2.03;;;13.80;99.90;;;;;;5090016;28;20199;-74
2021/10/11 00:45:01;;;;;;;7.80;2.17;;;13.90;99.90;;;;;;5080588;28;20196;-76
2021/10/11 00:47:28;;;;;;;11.43;2.07;;;13.90;99.90;;;;;;5089687;28;20568;-77
2021/10/11 00:49:55;;;;;;;10.00;2.00;;;14.00;99.90;;;;;;5079975;28;20510;-73
2021/10/11 00:52:23;;;;;;;11.13;1.50;;;14.00;99.90;;;;;;5096362;28;20477;-74
2021/10/11 00:54:51;;;;;;;8.40;2.17;;;13.90;99.90;;;;;;5093746;28;20676;-75
2021/10/11 00:57:18;;;;;;;9.63;2.20;;;13.90;99.90;;;;;;5093773;28;20205;-75
2021/10/11 00:59:46;;;;;;;6.40;1.50;;;14.10;99.90;;;;;;5092622;28;20258;-74
2021/10/11 01:02:13;;;;;;;6.43;1.63;;;14.20;99.90;;;;;;5087903;28;20191;-76
2021/10/11 01:04:40;;;;;;;19.97;2.83;;;14.30;99.90;;;;;;5095160;28;20254;-76
2021/10/11 01:07:08;;;;;;;8.83;2.00;;;14.20;99.90;;;;;;5083134;28;20179;-78
2021/10/11 01:09:35;;;;;;;15.07;3.10;;;14.30;99.90;;;;;;5093180;28;20194;-77
2021/10/11 01:12:03;;;;;;;6.60;2.17;;;14.30;99.90;;;;;;5094039;28;20228;-78
2021/10/11 01:14:30;;;;;;;7.40;1.90;;;14.30;99.90;;;;;;5094152;28;20273;-74
2021/10/11 01:16:58;;;;;;;12.83;2.27;;;14.30;99.90;;;;;;5094247;28;20266;-76
2021/10/11 01:19:25;;;;;;;10.07;2.23;;;14.40;99.90;;;;;;5093669;28;20548;-75
2021/10/11 01:21:53;;;;;;;6.60;1.87;;;14.10;99.90;;;;;;5092192;28;20179;-76
2021/10/11 01:24:20;;;;;;;16.30;2.23;;;14.10;99.90;;;;;;5091471;28;20545;-75
2021/10/11 01:26:47;;;;;;;9.67;2.03;;;14.00;99.90;;;;;;5089180;28;20178;-76
2021/10/11 01:29:17;;;;;;;13.87;2.97;;;14.00;99.90;;;;;;5091747;28;20553;-75
2021/10/11 01:31:45;;;;;;;12.37;2.83;;;14.10;99.90;;;;;;5093298;28;20210;-76
2021/10/11 01:34:13;;;;;;;10.47;1.80;;;14.20;99.90;;;;;;5092843;28;20178;-77
2021/10/11 01:36:40;;;;;;;9.77;2.03;;;14.00;99.90;;;;;;5093240;28;20198;-75
2021/10/11 01:39:10;;;;;;;11.33;1.87;;;14.00;99.90;;;;;;5093937;28;20178;-72
2021/10/11 01:41:40;;;;;;;24.07;2.97;;;14.10;99.90;;;;;;5086396;28;20190;-77
2021/10/11 01:44:08;;;;;;;17.23;4.10;;;14.20;99.90;;;;;;5092463;28;20225;-77
2021/10/11 01:46:37;;;;;;;7.97;1.90;;;14.20;99.90;;;;;;5090081;28;20182;-77
2021/10/11 01:49:05;;;;;;;8.27;1.73;;;14.20;99.90;;;;;;5089082;28;20262;-75
2021/10/11 01:51:32;;;;;;;17.97;2.43;;;14.00;99.90;;;;;;5091992;28;20269;-74
2021/10/11 01:54:00;;;;;;;14.50;2.77;;;14.00;99.90;;;;;;5089722;28;20178;-76
2021/10/11 01:56:27;;;;;;;10.33;2.53;;;14.10;99.90;;;;;;5086759;28;20661;-75
2021/10/11 01:58:56;;;;;;;9.00;2.20;;;14.00;99.90;;;;;;5088562;28;20670;-75
2021/10/11 02:01:24;;;;;;;11.33;1.93;;;13.80;99.90;;;;;;5087435;28;20182;-77
2021/10/11 02:03:51;;;;;;;11.57;1.97;;;13.60;99.90;;;;;;5090848;28;20684;-77
2021/10/11 02:06:18;;;;;;;12.80;2.90;;;13.60;99.90;;;;;;5093287;28;20175;-75
2021/10/11 02:08:46;;;;;;;15.23;2.10;;;13.70;99.90;;;;;;5092706;28;20195;-77
2021/10/11 02:11:13;;;;;;;23.10;2.97;;;13.80;99.90;;;;;;5093488;28;20264;-76
2021/10/11 02:13:41;;;;;;;9.73;2.30;;;14.00;99.90;;;;;;5093396;28;20193;-76
2021/10/11 02:16:08;;;;;;;13.40;2.97;;;14.10;99.90;;;;;;5092375;28;20217;-76
2021/10/11 02:18:35;;;;;;;8.93;2.00;;;14.30;99.90;;;;;;5092159;28;20651;-77
2021/10/11 02:21:03;;;;;;;13.67;2.23;;;14.30;99.90;;;;;;5093894;28;20625;-76
2021/10/11 02:23:30;;;;;;;21.43;2.50;;;14.40;99.90;;;;;;5092060;28;20699;-76
2021/10/11 02:25:57;;;;;;;8.90;1.83;;;14.70;99.90;;;;;;5093533;28;20252;-73
2021/10/11 02:28:25;;;;;;;11.93;1.70;;;14.50;99.90;;;;;;5093118;28;20178;-76
2021/10/11 02:30:52;;;;;;;17.37;2.10;;;14.60;99.90;;;;;;5091039;28;20596;-77
2021/10/11 02:33:20;;;;;;;11.70;2.47;;;14.70;99.90;;;;;;5089871;28;21179;-78
2021/10/11 02:35:47;;;;;;;11.60;2.30;;;14.70;99.90;;;;;;5093224;28;20253;-75
2021/10/11 02:38:14;;;;;;;13.97;3.00;;;14.80;99.90;;;;;;5096949;28;20200;-76
2021/10/11 02:40:42;;;;;;;9.20;2.10;;;14.80;99.90;;;;;;5100028;28;20297;-73
2021/10/11 02:43:09;;;;;;;13.23;2.27;;;14.80;99.90;;;;;;5094551;28;20703;-77
2021/10/11 02:45:37;;;;;;;11.17;1.90;;;14.90;99.90;;;;;;5103210;28;20269;-73
2021/10/11 02:48:06;;;;;;;9.87;1.87;;;14.90;99.90;;;;;;5093202;28;20186;-74
2021/10/11 02:50:34;;;;;;;13.73;2.23;;;14.50;99.90;;;;;;5093490;28;20169;-77
2021/10/11 02:53:01;;;;;;;6.00;1.93;;;14.40;99.90;;;;;;5093260;28;20174;-76
2021/10/11 02:55:28;;;;;;;11.80;2.17;;;14.50;99.90;;;;;;5094358;28;20637;-76
2021/10/11 02:57:56;;;;;;;8.63;2.27;;;14.50;99.90;;;;;;5104407;28;20182;-76
2021/10/11 03:00:23;;;;;;;7.20;1.43;;;14.70;99.90;;;;;;5092414;28;20159;-75
2021/10/11 03:02:51;;;;;;;7.60;1.80;;;14.80;99.90;;;;;;5092162;28;20343;-74
2021/10/11 03:05:18;;;;;;;7.33;2.27;;;14.80;99.90;;;;;;5093131;28;20741;-76
2021/10/11 03:07:45;;;;;;;7.73;1.97;;;14.80;99.90;;;;;;5093391;28;20221;-78
2021/10/11 03:10:13;;;;;;;8.53;2.70;;;14.80;99.90;;;;;;5093244;28;20213;-76
2021/10/11 03:12:40;;;;;;;9.70;1.80;;;15.00;99.90;;;;;;5093101;28;20226;-75
2021/10/11 03:15:08;;;;;;;10.17;1.97;;;15.10;99.90;;;;;;5093553;28;20244;-74
2021/10/11 03:17:36;;;;;;;6.27;1.50;;;15.10;99.90;;;;;;5092908;28;20182;-76
2021/10/11 03:20:05;;;;;;;12.67;2.07;;;15.20;99.90;;;;;;5093250;28;20240;-76
2021/10/11 03:22:33;;;;;;;10.93;2.00;;;15.30;99.90;;;;;;5079190;28;20203;-76
2021/10/11 03:25:00;;;;;;;10.00;1.67;;;15.30;99.90;;;;;;5084229;28;20216;-74
2021/10/11 03:27:27;;;;;;;6.93;1.97;;;15.40;99.90;;;;;;5093529;28;20171;-75
2021/10/11 03:29:55;;;;;;;11.67;2.80;;;15.40;99.90;;;;;;5092756;28;20182;-76
2021/10/11 03:32:22;;;;;;;8.23;1.80;;;15.40;99.90;;;;;;5093133;28;20540;-73
2021/10/11 03:34:49;;;;;;;6.87;1.40;;;15.40;99.90;;;;;;5087604;28;20191;-73
2021/10/11 03:37:17;;;;;;;7.53;1.60;;;15.40;99.90;;;;;;5087677;28;20186;-74
2021/10/11 03:39:45;;;;;;;8.90;2.57;;;15.30;99.90;;;;;;5091039;28;20215;-72
2021/10/11 03:42:12;;;;;;;9.27;1.93;;;15.30;99.90;;;;;;5091240;28;20194;-75
2021/10/11 03:44:39;;;;;;;7.77;1.83;;;15.20;99.90;;;;;;5087793;28;20182;-75
2021/10/11 03:47:07;;;;;;;8.03;1.90;;;15.00;99.90;;;;;;5091964;28;20186;-76
2021/10/11 03:49:34;;;;;;;7.90;1.97;;;14.80;99.90;;;;;;5085129;28;20187;-76
2021/10/11 03:52:02;;;;;;;11.60;3.13;;;14.70;99.90;;;;;;5090878;28;20667;-77
2021/10/11 03:54:29;;;;;;;9.53;1.93;;;14.60;99.90;;;;;;5088726;28;20178;-77
2021/10/11 03:56:56;;;;;;;13.27;2.43;;;14.60;99.90;;;;;;5090054;28;20182;-75
2021/10/11 03:59:23;;;;;;;11.53;2.00;;;14.60;99.90;;;;;;5091674;28;20190;-73
2021/10/11 04:01:51;;;;;;;8.37;1.53;;;14.40;99.90;;;;;;5090692;28;20547;-76
2021/10/11 04:04:20;;;;;;;13.93;2.27;;;14.20;99.90;;;;;;5091330;28;20265;-76
2021/10/11 04:06:49;;;;;;;14.03;2.47;;;14.20;99.90;;;;;;5091569;28;20214;-73
2021/10/11 04:09:16;;;;;;;11.33;2.13;;;14.20;99.90;;;;;;5091202;28;20609;-76
2021/10/11 04:11:43;;;;;;;5.37;2.20;;;14.20;99.90;;;;;;5086818;28;20233;-75
2021/10/11 04:14:11;;;;;;;13.60;2.37;;;14.20;99.90;;;;;;5093232;28;20182;-71
2021/10/11 04:16:38;;;;;;;10.70;2.97;;;14.20;99.90;;;;;;5095679;28;20185;-73
2021/10/11 04:19:06;;;;;;;10.53;2.83;;;14.10;99.90;;;;;;5089175;28;20213;-72
2021/10/11 04:21:33;;;;;;;15.20;2.73;;;14.10;99.90;;;;;;5092500;28;20240;-72
2021/10/11 04:24:01;;;;;;;9.37;2.13;;;13.90;99.90;;;;;;5085837;28;20224;-71
2021/10/11 04:26:28;;;;;;;6.73;2.63;;;13.90;99.90;;;;;;5094973;28;20184;-73
2021/10/11 04:28:55;;;;;;;8.10;2.00;;;14.10;99.90;;;;;;5095013;28;20281;-74
2021/10/11 04:31:22;;;;;;;13.20;2.10;;;14.10;99.90;;;;;;5093263;28;20701;-71
2021/10/11 04:33:50;;;;;;;8.43;2.00;;;14.30;99.90;;;;;;5094159;28;20182;-72
2021/10/11 04:36:19;;;;;;;6.73;1.80;;;14.40;99.90;;;;;;5093723;28;20186;-72
2021/10/11 04:38:46;;;;;;;7.73;1.37;;;14.40;99.90;;;;;;5094399;28;20189;-73
2021/10/11 04:41:13;;;;;;;5.57;1.23;;;14.30;99.90;;;;;;5095073;28;20269;-74
2021/10/11 04:43:41;;;;;;;8.60;1.60;;;14.20;99.90;;;;;;5091740;28;20247;-71
2021/10/11 04:46:08;;;;;;;8.13;1.50;;;14.00;99.90;;;;;;5093134;28;20190;-71
2021/10/11 04:48:36;;;;;;;9.70;1.67;;;13.80;99.90;;;;;;5093906;28;20220;-73
2021/10/11 04:51:03;;;;;;;9.13;2.17;;;13.80;99.90;;;;;;5089233;28;20175;-71
2021/10/11 04:53:30;;;;;;;7.90;1.60;;;13.70;99.90;;;;;;5094623;28;20183;-71
2021/10/11 04:55:58;;;;;;;6.83;1.83;;;13.60;99.90;;;;;;5094496;28;20185;-76
2021/10/11 04:58:25;;;;;;;8.53;1.57;;;13.60;99.90;;;;;;5095448;28;20178;-72
2021/10/11 05:00:52;;;;;;;9.43;1.67;;;13.60;99.90;;;;;;5089532;28;20236;-71
2021/10/11 05:03:20;;;;;;;5.43;1.37;;;13.70;99.90;;;;;;5093803;28;20263;-72
2021/10/11 05:05:47;;;;;;;5.23;1.40;;;13.80;99.90;;;;;;5089475;28;20641;-74
2021/10/11 05:08:14;;;;;;;7.43;1.20;;;13.90;99.90;;;;;;5094445;28;20188;-75
2021/10/11 05:10:42;;;;;;;2.40;0.90;;;13.90;99.90;;;;;;5093652;28;20182;-77
2021/10/11 05:13:09;;;;;;;8.73;1.40;;;14.10;99.90;;;;;;5088400;28;20234;-74
2021/10/11 05:15:37;;;;;;;6.37;1.40;;;14.20;99.90;;;;;;5086805;28;20256;-73
2021/10/11 05:18:04;;;;;;;4.33;1.20;;;14.50;99.90;;;;;;5093462;28;20206;-72
2021/10/11 05:20:36;;;;;;;5.57;1.70;;;14.50;99.90;;;;;;5088274;28;20266;-76
2021/10/11 05:23:04;;;;;;;2.87;0.90;;;14.60;99.90;;;;;;5092800;28;20222;-74
2021/10/11 05:25:32;;;;;;;7.53;1.90;;;14.70;99.90;;;;;;5090314;28;20218;-78
2021/10/11 05:27:59;;;;;;;7.03;1.80;;;14.80;99.90;;;;;;5092927;28;20471;-75
2021/10/11 05:30:27;;;;;;;7.40;1.67;;;14.90;99.90;;;;;;5092360;28;20445;-77
2021/10/11 05:32:54;;;;;;;7.53;1.83;;;14.90;99.90;;;;;;5085905;28;20550;-73
2021/10/11 05:35:21;;;;;;;8.60;1.33;;;15.10;99.90;;;;;;5088474;28;20240;-74
2021/10/11 05:37:49;;;;;;;6.30;2.07;;;15.10;99.90;;;;;;5093071;28;20395;-75
2021/10/11 05:40:16;;;;;;;9.17;1.43;;;15.30;99.90;;;;;;5094505;28;20186;-76
2021/10/11 05:42:44;;;;;;;9.27;3.97;;;15.40;99.90;;;;;;5094048;28;20665;-79
2021/10/11 05:45:11;;;;;;;10.70;3.30;;;15.50;99.90;;;;;;5093001;28;20186;-79
2021/10/11 05:47:38;;;;;;;9.27;1.80;;;15.60;99.90;;;;;;5092004;28;20254;-77
2021/10/11 05:50:07;;;;;;;11.10;1.60;;;15.50;99.90;;;;;;5090507;28;20216;-78
2021/10/11 05:52:35;;;;;;;9.27;1.27;;;15.40;99.90;;;;;;5092194;28;20238;-75
2021/10/11 05:55:03;;;;;;;19.67;10.67;;;15.20;99.90;;;;;;5090767;28;20271;-78
2021/10/11 05:57:32;;;;;;;12.63;4.27;;;15.20;99.90;;;;;;5091854;28;20179;-77
2021/10/11 06:00:00;;;;;;;8.10;2.17;;;15.10;99.90;;;;;;5092734;28;20585;-77
2021/10/11 06:02:27;;;;;;;7.97;1.63;;;15.10;99.90;;;;;;5093524;28;20285;-78
2021/10/11 06:04:54;;;;;;;9.40;1.60;;;15.10;99.90;;;;;;5093885;28;20293;-77
2021/10/11 06:07:22;;;;;;;6.90;1.53;;;15.10;99.90;;;;;;5094231;28;20176;-79
2021/10/11 06:09:49;;;;;;;8.87;1.57;;;15.10;99.90;;;;;;5090272;28;20195;-77
2021/10/11 06:12:16;;;;;;;12.13;1.67;;;15.10;99.90;;;;;;5093130;28;20306;-78
2021/10/11 06:14:44;;;;;;;8.77;1.57;;;14.80;99.90;;;;;;5090771;28;20708;-78
2021/10/11 06:17:11;;;;;;;7.10;1.50;;;14.70;99.90;;;;;;5094477;28;20220;-78
2021/10/11 06:19:38;;;;;;;9.30;1.47;;;14.50;99.90;;;;;;5081551;28;20175;-77
2021/10/11 06:22:06;;;;;;;6.60;1.10;;;14.40;99.90;;;;;;5093053;28;20652;-77
2021/10/11 06:24:33;;;;;;;7.27;1.33;;;14.20;99.90;;;;;;5089571;28;20190;-77
2021/10/11 06:27:03;;;;;;;3.97;1.20;;;14.10;99.90;;;;;;5080848;28;20237;-77
2021/10/11 06:29:31;;;;;;;6.97;1.10;;;14.10;99.90;;;;;;5092665;28;20193;-77
2021/10/11 06:31:58;;;;;;;5.00;1.27;;;14.10;99.90;;;;;;5091046;28;20183;-77
2021/10/11 06:34:25;;;;;;;10.10;1.93;;;14.20;99.90;;;;;;5095145;28;20190;-77
2021/10/11 06:36:52;;;;;;;5.17;1.57;;;14.20;99.90;;;;;;5093789;28;20162;-76
2021/10/11 06:39:20;;;;;;;4.13;1.20;;;14.30;99.90;;;;;;5092603;28;20170;-76
2021/10/11 06:41:47;;;;;;;9.90;1.30;;;14.30;99.90;;;;;;5093634;28;20175;-77
2021/10/11 06:44:15;;;;;;;6.23;1.40;;;14.40;99.90;;;;;;5093966;28;20239;-76
2021/10/11 06:46:42;;;;;;;5.67;1.97;;;14.40;99.90;;;;;;5093478;28;20177;-77
2021/10/11 06:49:09;;;;;;;12.10;2.47;;;14.40;99.90;;;;;;5091536;28;20186;-77
2021/10/11 06:51:37;;;;;;;5.57;1.57;;;14.50;99.90;;;;;;5082577;28;20651;-77
2021/10/11 06:54:04;;;;;;;6.57;1.60;;;14.60;99.90;;;;;;5081443;28;20649;-77
2021/10/11 06:56:31;;;;;;;7.53;1.80;;;14.60;99.90;;;;;;5074831;28;20214;-76
2021/10/11 06:58:59;;;;;;;6.33;1.60;;;14.60;99.90;;;;;;5086946;28;20185;-76
2021/10/11 07:01:27;;;;;;;9.67;1.53;;;14.60;99.90;;;;;;5093583;28;20572;-77
2021/10/11 07:03:55;;;;;;;11.60;1.90;;;14.70;99.90;;;;;;5076686;28;20209;-76
2021/10/11 07:06:23;;;;;;;9.37;2.67;;;14.70;99.90;;;;;;5081749;28;20187;-77
2021/10/11 07:08:51;;;;;;;11.37;3.57;;;14.60;99.90;;;;;;5082137;28;20190;-79
2021/10/11 07:11:19;;;;;;;13.57;3.00;;;14.60;99.90;;;;;;5093045;28;20183;-78
2021/10/11 07:13:47;;;;;;;14.53;4.47;;;14.70;99.90;;;;;;5090541;28;20194;-75
2021/10/11 07:16:14;;;;;;;11.97;2.50;;;14.70;99.90;;;;;;5083409;28;20210;-76
2021/10/11 07:18:41;;;;;;;14.47;2.20;;;14.70;99.90;;;;;;5092839;28;20227;-77
2021/10/11 07:21:09;;;;;;;8.93;1.90;;;14.70;99.90;;;;;;5093363;28;20656;-78
2021/10/11 07:23:36;;;;;;;10.40;2.13;;;14.70;99.90;;;;;;5088094;28;20210;-77
2021/10/11 07:26:06;;;;;;;10.07;1.80;;;14.60;99.90;;;;;;5093627;28;20175;-78
2021/10/11 07:28:34;;;;;;;9.50;1.67;;;14.60;99.90;;;;;;5090605;28;20585;-78
2021/10/11 07:31:01;;;;;;;12.17;1.63;;;14.70;99.90;;;;;;5080609;28;20901;-78
2021/10/11 07:33:29;;;;;;;5.53;1.40;;;14.70;99.90;;;;;;5086218;28;20183;-78
2021/10/11 07:35:56;;;;;;;11.10;1.90;;;14.70;99.90;;;;;;5083171;28;20175;-78
2021/10/11 07:38:24;;;;;;;6.87;2.00;;;14.70;99.90;;;;;;5081267;28;20178;-78
2021/10/11 07:40:52;;;;;;;5.50;1.53;;;14.80;99.90;;;;;;5086682;28;20178;-79
2021/10/11 07:43:20;;;;;;;10.73;1.90;;;14.70;99.90;;;;;;5084314;28;20243;-78
2021/10/11 07:45:47;;;;;;;8.33;2.70;;;14.70;99.90;;;;;;5090208;28;20645;-78
2021/10/11 07:48:15;;;;;;;6.13;1.50;;;14.70;99.90;;;;;;5089880;28;20178;-76
2021/10/11 07:50:43;;;;;;;14.50;4.03;;;14.60;99.90;;;;;;5092817;28;20177;-75
2021/10/11 07:53:13;;;;;;;16.37;5.03;;;14.50;99.90;;;;;;5092793;28;20182;-77
2021/10/11 07:55:42;;;;;;;8.67;2.43;;;14.50;99.90;;;;;;5090146;28;20171;-77
2021/10/11 07:58:10;;;;;;;8.47;4.60;;;14.30;99.90;;;;;;5091926;28;20622;-77
2021/10/11 08:00:37;;;;;;;14.07;4.53;;;14.20;99.90;;;;;;5090655;28;20206;-77
2021/10/11 08:03:05;;;;;;;12.83;4.80;;;14.20;99.90;;;;;;5092385;28;20247;-80
2021/10/11 08:05:32;;;;;;;13.37;4.33;;;14.20;99.90;;;;;;5091793;28;20165;-77
2021/10/11 08:07:59;;;;;;;14.47;7.33;;;14.10;99.90;;;;;;5085375;28;20190;-79
2021/10/11 08:10:27;;;;;;;13.43;4.27;;;14.00;99.90;;;;;;5092240;28;20170;-75
2021/10/11 08:12:54;;;;;;;11.37;3.00;;;14.00;99.90;;;;;;5086212;28;20299;-77
2021/10/11 08:15:21;;;;;;;5.23;1.90;;;14.00;99.90;;;;;;5090828;28;20226;-77
2021/10/11 08:17:50;;;;;;;11.27;2.87;;;14.10;99.90;;;;;;5088806;28;20278;-77
2021/10/11 08:20:18;;;;;;;7.20;1.83;;;14.20;99.90;;;;;;5092683;28;20188;-76
2021/10/11 08:22:46;;;;;;;9.50;2.10;;;14.30;99.90;;;;;;5091401;28;20279;-74
2021/10/11 08:25:13;;;;;;;5.47;1.80;;;14.30;99.90;;;;;;5082321;28;20194;-77
2021/10/11 08:27:41;;;;;;;9.57;3.07;;;14.50;99.90;;;;;;5085655;28;20293;-78
2021/10/11 08:30:08;;;;;;;6.37;2.43;;;14.50;99.90;;;;;;5092157;28;20656;-76
2021/10/11 08:32:36;;;;;;;8.30;1.90;;;14.40;99.90;;;;;;5080238;28;20225;-77
2021/10/11 08:35:03;;;;;;;9.97;2.13;;;14.40;99.90;;;;;;5076790;28;20248;-77
2021/10/11 08:37:31;;;;;;;9.03;1.93;;;14.40;99.90;;;;;;5092361;28;20175;-77
2021/10/11 08:39:58;;;;;;;9.40;2.20;;;14.50;99.90;;;;;;5077973;28;20179;-78
2021/10/11 08:42:26;;;;;;;9.77;2.67;;;14.50;99.90;;;;;;5082480;28;20236;-78
2021/10/11 08:44:53;;;;;;;9.40;2.93;;;14.40;99.90;;;;;;5090913;28;20535;-79
2021/10/11 08:47:20;;;;;;;7.03;2.17;;;14.40;99.90;;;;;;5081540;28;20642;-77
2021/10/11 08:49:50;;;;;;;7.00;1.50;;;14.40;99.90;;;;;;5085176;28;20179;-78
2021/10/11 08:52:24;;;;;;;8.17;3.30;;;14.40;99.90;;;;;;5076649;28;20226;-79
2021/10/11 08:54:53;;;;;;;13.10;2.30;;;14.50;99.90;;;;;;5090808;28;20182;-79
2021/10/11 08:57:28;;;;;;;2.73;1.20;;;14.50;99.90;;;;;;5087507;28;20197;-77
2021/10/11 09:00:11;;;;;;;8.17;1.40;;;14.60;99.90;;;;;;5092270;28;20174;-79
2021/10/11 09:02:52;;;;;;;5.63;1.30;;;14.60;99.90;;;;;;5087321;28;20195;-74
2021/10/11 09:05:33;;;;;;;6.93;1.40;;;14.60;99.90;;;;;;5083468;28;20188;-76
2021/10/11 09:08:08;;;;;;;6.50;1.37;;;14.60;99.90;;;;;;5084725;28;20524;-75
2021/10/11 09:11:01;;;;;;;4.17;1.17;;;14.70;99.90;;;;;;5086481;28;20187;-75
2021/10/11 09:13:45;;;;;;;8.37;1.80;;;14.70;99.90;;;;;;5095887;28;20230;-75
2021/10/11 09:16:35;;;;;;;8.37;1.53;;;14.70;99.90;;;;;;5095849;28;20175;-76
2021/10/11 09:19:29;;;;;;;4.77;2.40;;;14.70;99.90;;;;;;5095358;28;20210;-74
2021/10/11 09:21:56;;;;;;;7.27;2.90;;;14.80;99.90;;;;;;5087363;28;20510;-76
2021/10/11 09:24:23;;;;;;;6.97;1.93;;;14.80;99.90;;;;;;5087304;28;20318;-76
2021/10/11 09:27:02;;;;;;;9.40;1.53;;;14.80;99.90;;;;;;5080320;28;20537;-76
2021/10/11 09:29:37;;;;;;;6.40;1.40;;;14.80;99.90;;;;;;5093793;28;20269;-76
2021/10/11 09:32:10;;;;;;;9.77;1.87;;;14.80;99.90;;;;;;5093707;28;20729;-74
2021/10/11 09:34:42;;;;;;;7.97;1.77;;;14.80;99.90;;;;;;5087409;28;20187;-74
2021/10/11 09:37:13;;;;;;;8.77;1.90;;;14.70;99.90;;;;;;5087552;28;20255;-76
2021/10/11 09:39:42;;;;;;;7.50;1.90;;;14.70;99.90;;;;;;5090391;28;20174;-74
2021/10/11 09:42:14;;;;;;;9.93;1.50;;;14.60;99.90;;;;;;5093084;28;20178;-75
2021/10/11 09:44:55;;;;;;;5.60;1.30;;;14.70;99.90;;;;;;5088881;28;20210;-75
2021/10/11 09:47:37;;;;;;;6.63;1.20;;;14.60;99.90;;;;;;5081611;28;20182;-75
2021/10/11 09:50:12;;;;;;;3.70;1.20;;;14.70;99.90;;;;;;5093127;28;20183;-74
2021/10/11 09:52:41;;;;;;;4.60;1.30;;;14.70;99.90;;;;;;5094302;28;20698;-74
2021/10/11 09:55:11;;;;;;;7.37;1.80;;;14.70;99.90;;;;;;5093509;28;20194;-75
2021/10/11 09:57:38;;;;;;;4.47;1.03;;;14.70;99.90;;;;;;5092832;28;20656;-77
2021/10/11 10:00:10;;;;;;;5.63;1.00;;;14.70;99.90;;;;;;5087186;28;20707;-77
2021/10/11 10:02:42;;;;;;;9.80;1.40;;;14.80;99.90;;;;;;5086070;28;20210;-75
2021/10/11 10:05:14;;;;;;;6.37;1.30;;;14.80;99.90;;;;;;5082725;28;20187;-77
2021/10/11 10:07:47;;;;;;;8.53;3.33;;;14.80;99.90;;;;;;5090345;28;20175;-76
2021/10/11 10:10:17;;;;;;;6.93;1.63;;;14.80;99.90;;;;;;5094102;28;20655;-75
2021/10/11 10:12:49;;;;;;;5.27;1.40;;;14.80;99.90;;;;;;5094110;28;20623;-76
2021/10/11 10:15:38;;;;;;;5.30;1.20;;;14.90;99.90;;;;;;5093549;28;20636;-76
2021/10/11 10:18:16;;;;;;;10.73;1.73;;;14.90;99.90;;;;;;5090659;28;20327;-73
2021/10/11 10:21:10;;;;;;;5.67;1.33;;;14.90;99.90;;;;;;5094231;28;20275;-77
2021/10/11 10:23:40;;;;;;;10.67;2.27;;;14.90;99.90;;;;;;5085919;28;20209;-76
2021/10/11 10:26:10;;;;;;;11.90;1.77;;;14.90;99.90;;;;;;5093725;28;20200;-75
2021/10/11 10:28:44;;;;;;;9.70;1.53;;;14.90;99.90;;;;;;5094560;28;20232;-75
2021/10/11 10:31:13;;;;;;;6.00;1.50;;;14.90;99.90;;;;;;5092160;28;20626;-75
2021/10/11 10:33:42;;;;;;;10.10;2.70;;;14.90;99.90;;;;;;5077698;28;20261;-75
2021/10/11 10:36:25;;;;;;;7.57;2.23;;;14.90;99.90;;;;;;5085279;28;20232;-75
2021/10/11 10:39:03;;;;;;;5.77;1.80;;;14.90;99.90;;;;;;5094013;28;20576;-77
2021/10/11 10:41:31;;;;;;;6.67;1.60;;;14.80;99.90;;;;;;5093696;28;20599;-77
2021/10/11 10:44:20;;;;;;;6.37;1.43;;;14.80;99.90;;;;;;5091170;28;20226;-77
2021/10/11 10:47:02;;;;;;;9.90;1.40;;;14.80;99.90;;;;;;5081795;28;20180;-78
2021/10/11 10:49:47;;;;;;;6.23;2.00;;;14.80;99.90;;;;;;5093813;28;20167;-75
2021/10/11 10:52:20;;;;;;;8.73;2.27;;;14.80;99.90;;;;;;5084535;28;20637;-77
2021/10/11 10:54:58;;;;;;;8.80;1.63;;;14.80;99.90;;;;;;5085499;28;20266;-76
2021/10/11 10:57:31;;;;;;;10.03;2.30;;;14.90;99.90;;;;;;5093404;28;20178;-75
2021/10/11 11:00:01;;;;;;;11.17;1.97;;;14.90;99.90;;;;;;5093480;28;20535;-75
2021/10/11 11:02:30;;;;;;;14.27;2.80;;;14.90;99.90;;;;;;5092099;28;20281;-74
2021/10/11 11:05:03;;;;;;;10.80;2.23;;;14.90;99.90;;;;;;5093427;28;20188;-74
2021/10/11 11:07:37;;;;;;;17.47;2.40;;;15.00;99.90;;;;;;5087397;28;20236;-74
2021/10/11 11:10:14;;;;;;;8.23;1.40;;;15.00;99.90;;;;;;5093131;28;20210;-75
2021/10/11 11:12:44;;;;;;;6.70;1.93;;;15.00;99.90;;;;;;5092995;28;20225;-75
2021/10/11 11:15:24;;;;;;;6.67;1.60;;;15.00;99.90;;;;;;5093048;28;20189;-75
2021/10/11 11:17:52;;;;;;;7.53;1.50;;;15.00;99.90;;;;;;5092677;28;20211;-75
2021/10/11 11:20:24;;;;;;;12.53;2.07;;;15.00;99.90;;;;;;5093117;28;20275;-75
2021/10/11 11:22:56;;;;;;;12.27;2.10;;;15.00;99.90;;;;;;5089356;28;20244;-75
2021/10/11 11:25:35;;;;;;;11.90;1.90;;;15.00;99.90;;;;;;5082572;28;20182;-75
2021/10/11 11:28:05;;;;;;;11.03;2.37;;;14.90;99.90;;;;;;5093489;28;20687;-76
2021/10/11 11:30:34;;;;;;;8.20;1.70;;;14.90;99.90;;;;;;5090940;28;20239;-74
2021/10/11 11:33:14;;;;;;;10.50;1.83;;;14.90;99.90;;;;;;5085049;28;20183;-76
2021/10/11 11:35:53;;;;;;;11.37;2.10;;;14.90;99.90;;;;;;5093121;28;20179;-76
2021/10/11 11:38:26;;;;;;;7.80;1.50;;;14.90;99.90;;;;;;5090652;28;20193;-76
2021/10/11 11:40:59;;;;;;;6.37;1.77;;;14.90;99.90;;;;;;5087159;28;20211;-77
2021/10/11 11:43:29;;;;;;;8.23;1.70;;;14.90;99.90;;;;;;5090425;28;20218;-75
2021/10/11 11:45:58;;;;;;;10.17;1.77;;;14.90;99.90;;;;;;5083171;28;20275;-75
2021/10/11 11:48:36;;;;;;;10.77;1.77;;;14.90;99.90;;;;;;5086900;28;20208;-74
2021/10/11 11:51:07;;;;;;;13.70;2.10;;;14.90;99.90;;;;;;5080660;28;20267;-75
2021/10/11 11:53:37;;;;;;;9.17;1.70;;;14.90;99.90;;;;;;5093142;28;20320;-77
2021/10/11 11:56:06;;;;;;;7.90;1.50;;;15.00;99.90;;;;;;5089309;28;20193;-76
2021/10/11 11:58:36;;;;;;;7.33;1.77;;;14.90;99.90;;;;;;5094262;28;20190;-76
2021/10/11 12:01:12;;;;;;;8.40;1.17;;;15.00;99.90;;;;;;5094578;28;20193;-75
2021/10/11 12:03:51;;;;;;;8.60;1.80;;;15.00;99.90;;;;;;5088574;28;20229;-76
2021/10/11 12:06:20;;;;;;;11.03;1.83;;;15.00;99.90;;;;;;5081159;28;20769;-74
2021/10/11 12:08:48;;;;;;;8.93;1.80;;;15.00;99.90;;;;;;5092978;28;20573;-73
2021/10/11 12:11:19;;;;;;;7.97;1.70;;;15.00;99.90;;;;;;5087597;28;20179;-78
2021/10/11 12:13:47;;;;;;;12.53;1.80;;;14.80;99.90;;;;;;5090371;28;20222;-78
2021/10/11 12:16:19;;;;;;;8.80;1.90;;;14.60;99.90;;;;;;5093277;28;20185;-80
2021/10/11 12:18:48;;;;;;;6.43;1.50;;;14.30;99.90;;;;;;5082260;28;20266;-78
2021/10/11 12:21:36;;;;;;;10.07;1.87;;;14.10;99.90;;;;;;5086660;28;20545;-77
2021/10/11 12:24:17;;;;;;;6.33;1.47;;;13.90;99.90;;;;;;5081712;28;20202;-79
2021/10/11 12:26:56;;;;;;;9.50;1.73;;;13.90;99.90;;;;;;5091218;28;20547;-79
2021/10/11 12:29:28;;;;;;;7.00;1.60;;;13.90;99.90;;;;;;5092951;28;20202;-78
2021/10/11 12:32:15;;;;;;;9.40;1.97;;;13.90;99.90;;;;;;5088564;28;20201;-79
2021/10/11 12:34:47;;;;;;;8.60;2.03;;;13.90;99.90;;;;;;5092760;28;20178;-78
2021/10/11 12:37:16;;;;;;;7.07;1.10;;;13.90;99.90;;;;;;5095845;28;20210;-79
2021/10/11 12:39:46;;;;;;;6.97;1.80;;;13.80;99.90;;;;;;5096497;28;20220;-77
2021/10/11 12:42:31;;;;;;;8.77;1.73;;;13.90;99.90;;;;;;5096526;28;20538;-76
2021/10/11 12:45:02;;;;;;;7.13;1.50;;;13.90;99.90;;;;;;5096589;28;20648;-74
2021/10/11 12:47:34;;;;;;;7.13;1.30;;;13.90;99.90;;;;;;5096476;28;20210;-78
2021/10/11 12:50:14;;;;;;;12.83;1.70;;;14.00;99.90;;;;;;5092202;28;20652;-76
2021/10/11 12:52:43;;;;;;;7.30;1.53;;;14.10;99.90;;;;;;5098060;28;20192;-77
2021/10/11 12:55:16;;;;;;;10.30;1.87;;;14.10;99.90;;;;;;5095169;28;20691;-73